TimeCEST,TemperatureF,Dew PointF,Humidity,Sea Level PressureIn,VisibilityMPH,Wind Direction,Wind SpeedMPH,Gust SpeedMPH,PrecipitationIn,Events,Conditions,WindDirDegrees,DateUTC
12:20 AM,59.0,44.6,59,29.71,6.2,NNE,8.1,-,N/A,,Scattered Clouds,20,2013-04-06 22:20:00
12:50 AM,59.0,44.6,59,29.71,6.2,NNE,8.1,-,N/A,,Scattered Clouds,20,2013-04-06 22:50:00
1:20 AM,59.0,44.6,59,29.71,6.2,North,9.2,-,N/A,,Partly Cloudy,10,2013-04-06 23:20:00
1:50 AM,57.2,44.6,63,29.68,-9999.0,North,8.1,-,N/A,,Clear,10,2013-04-06 23:50:00
2:20 AM,57.2,42.8,59,29.68,-9999.0,NNE,9.2,-,N/A,,Clear,20,2013-04-07 00:20:00
2:50 AM,57.2,42.8,59,29.68,-9999.0,NNE,8.1,-,N/A,,Clear,20,2013-04-07 00:50:00
3:20 AM,57.2,42.8,59,29.65,-9999.0,NNE,9.2,-,N/A,,Clear,30,2013-04-07 01:20:00
3:50 AM,57.2,42.8,59,29.65,-9999.0,NNE,10.4,-,N/A,,Clear,30,2013-04-07 01:50:00
4:20 AM,55.4,42.8,63,29.65,-9999.0,NNE,9.2,-,N/A,,Clear,30,2013-04-07 02:20:00
4:50 AM,55.4,42.8,63,29.65,-9999.0,NE,6.9,-,N/A,,Clear,50,2013-04-07 02:50:00
5:20 AM,55.4,42.8,63,29.65,-9999.0,ENE,9.2,-,N/A,,Clear,60,2013-04-07 03:20:00
5:50 AM,55.4,42.8,63,29.62,-9999.0,NE,11.5,-,N/A,,Clear,50,2013-04-07 03:50:00
6:20 AM,55.4,42.8,63,29.62,-9999.0,NNE,9.2,-,N/A,,Clear,30,2013-04-07 04:20:00
6:50 AM,55.4,42.8,63,29.65,-9999.0,NNE,6.9,-,N/A,,Clear,20,2013-04-07 04:50:00
7:20 AM,55.4,42.8,63,29.65,-9999.0,NNE,8.1,-,N/A,,Clear,30,2013-04-07 05:20:00
7:50 AM,55.4,42.8,63,29.65,-9999.0,NE,8.1,-,N/A,,Clear,50,2013-04-07 05:50:00
8:20 AM,57.2,42.8,59,29.65,-9999.0,NNE,6.9,-,N/A,,Clear,30,2013-04-07 06:20:00
8:50 AM,59.0,42.8,55,29.62,-9999.0,NNE,6.9,-,N/A,,Clear,30,2013-04-07 06:50:00
9:20 AM,59.0,44.6,59,29.65,-9999.0,NNE,12.7,-,N/A,,Clear,30,2013-04-07 07:20:00
9:50 AM,60.8,42.8,52,29.65,-9999.0,ENE,6.9,-,N/A,,Clear,70,2013-04-07 07:50:00
10:20 AM,62.6,42.8,48,29.65,-9999.0,NE,16.1,-,N/A,,Clear,40,2013-04-07 08:20:00
10:50 AM,62.6,41.0,45,29.65,-9999.0,NE,10.4,-,N/A,,Clear,50,2013-04-07 08:50:00
11:20 AM,64.4,44.6,49,29.65,-9999.0,ENE,9.2,-,N/A,,Clear,70,2013-04-07 09:20:00
11:50 AM,62.6,42.8,48,29.65,-9999.0,ENE,10.4,-,N/A,,Clear,60,2013-04-07 09:50:00
12:20 PM,64.4,42.8,45,29.65,-9999.0,ENE,12.7,-,N/A,,Clear,70,2013-04-07 10:20:00
12:50 PM,64.4,42.8,45,29.65,-9999.0,ENE,11.5,-,N/A,,Clear,70,2013-04-07 10:50:00
1:20 PM,66.2,42.8,43,29.65,-9999.0,ENE,10.4,-,N/A,,Clear,70,2013-04-07 11:20:00
1:50 PM,66.2,42.8,43,29.65,6.2,NE,10.4,-,N/A,,Partly Cloudy,50,2013-04-07 11:50:00
2:20 PM,66.2,42.8,43,29.65,6.2,NE,9.2,-,N/A,,Partly Cloudy,40,2013-04-07 12:20:00
2:50 PM,66.2,42.8,43,29.62,6.2,ENE,11.5,-,N/A,,Scattered Clouds,60,2013-04-07 12:50:00
3:20 PM,66.2,39.2,37,29.62,6.2,ENE,10.4,-,N/A,,Partly Cloudy,70,2013-04-07 13:20:00
3:50 PM,66.2,41.0,40,29.62,6.2,NNE,8.1,-,N/A,,Partly Cloudy,30,2013-04-07 13:50:00
4:20 PM,66.2,39.2,37,29.62,6.2,ENE,8.1,-,N/A,,Partly Cloudy,60,2013-04-07 14:20:00
4:50 PM,64.4,41.0,42,29.62,6.2,ENE,9.2,-,N/A,,Partly Cloudy,70,2013-04-07 14:50:00
5:20 PM,64.4,41.0,42,29.62,6.2,ENE,9.2,-,N/A,,Partly Cloudy,70,2013-04-07 15:20:00
5:50 PM,64.4,39.2,40,29.65,6.2,ENE,9.2,-,N/A,,Partly Cloudy,70,2013-04-07 15:50:00
6:20 PM,64.4,41.0,42,29.65,6.2,East,3.5,-,N/A,,Partly Cloudy,80,2013-04-07 16:20:00
6:50 PM,62.6,51.8,68,29.65,6.2,North,6.9,-,N/A,,Partly Cloudy,360,2013-04-07 16:50:00
7:20 PM,62.6,50.0,63,29.65,6.2,Variable,3.5,-,N/A,,Partly Cloudy,0,2013-04-07 17:20:00
7:50 PM,60.8,41.0,48,29.68,6.2,Variable,3.5,-,N/A,,Partly Cloudy,0,2013-04-07 17:50:00
8:20 PM,60.8,41.0,48,29.68,6.2,Variable,3.5,-,N/A,,Scattered Clouds,0,2013-04-07 18:20:00
8:50 PM,60.8,41.0,48,29.71,6.2,Variable,4.6,-,N/A,,Scattered Clouds,0,2013-04-07 18:50:00
9:20 PM,59.0,42.8,55,29.71,6.2,East,3.5,-,N/A,,Scattered Clouds,80,2013-04-07 19:20:00
9:50 PM,59.0,42.8,55,29.71,6.2,ENE,5.8,-,N/A,,Scattered Clouds,70,2013-04-07 19:50:00
10:20 PM,59.0,41.0,51,29.71,6.2,East,4.6,-,N/A,,Scattered Clouds,80,2013-04-07 20:20:00
10:50 PM,57.2,42.8,59,29.71,6.2,East,4.6,-,N/A,,Scattered Clouds,80,2013-04-07 20:50:00
11:20 PM,57.2,42.8,59,29.71,6.2,ENE,6.9,-,N/A,,Scattered Clouds,60,2013-04-07 21:20:00
11:50 PM,57.2,41.0,55,29.71,6.2,ENE,8.1,-,N/A,,Scattered Clouds,60,2013-04-07 21:50:00